createdAt,value
2022-08-14T00:02:31.315Z,5.60
2022-08-14T00:05:01.375Z,7.38
2022-08-14T00:07:29.973Z,5.72
2022-08-14T00:10:49.129Z,5.68
2022-08-14T00:12:56.375Z,6.05
2022-08-14T00:15:30.025Z,4.93
2022-08-14T00:18:30.562Z,7.82
2022-08-14T00:21:05.333Z,5.68
2022-08-14T00:23:40.369Z,5.43
2022-08-14T00:26:21.386Z,5.55
2022-08-14T00:28:50.517Z,7.47
2022-08-14T00:31:19.809Z,6.72
2022-08-14T00:34:37.924Z,6.85
2022-08-14T00:36:53.107Z,4.72
2022-08-14T00:39:21.885Z,5.55
2022-08-14T00:41:50.265Z,3.65
2022-08-14T00:44:27.507Z,5.63
2022-08-14T00:47:02.509Z,4.05
2022-08-14T00:49:36.404Z,4.03
2022-08-14T00:52:18.054Z,4.68
2022-08-14T00:54:52.962Z,6.72
2022-08-14T00:57:28.583Z,5.03
2022-08-14T00:59:57.446Z,5.63
2022-08-14T01:02:28.194Z,9.98
2022-08-14T01:05:01.549Z,4.68
2022-08-14T01:07:47.326Z,4.32
2022-08-14T01:10:18.979Z,5.53
2022-08-14T01:12:48.858Z,2.90
2022-08-14T01:15:31.564Z,4.00
2022-08-14T01:18:27.173Z,6.15
2022-08-14T01:21:07.299Z,4.85
2022-08-14T01:23:41.772Z,5.00
2022-08-14T01:26:23.584Z,4.47
2022-08-14T01:29:05.899Z,4.35
2022-08-14T01:31:37.079Z,5.97
2022-08-14T01:35:20.486Z,3.83
2022-08-14T01:36:55.567Z,5.57
2022-08-14T01:39:25.397Z,5.07
2022-08-14T01:41:58.084Z,4.55
2022-08-14T01:44:33.757Z,3.17
2022-08-14T01:47:05.950Z,4.93
2022-08-14T01:49:35.458Z,3.20
2022-08-14T01:52:08.975Z,3.38
2022-08-14T01:54:58.371Z,5.65
2022-08-14T01:57:49.738Z,5.15
2022-08-14T02:00:18.169Z,5.32
2022-08-14T02:02:46.827Z,3.00
2022-08-14T02:05:15.730Z,5.15
2022-08-14T02:08:08.583Z,6.50
2022-08-14T02:10:36.630Z,5.38
2022-08-14T02:13:16.129Z,5.50
2022-08-14T02:15:45.563Z,8.73
2022-08-14T02:18:18.129Z,6.03
2022-08-14T02:20:49.091Z,5.80
2022-08-14T02:23:28.996Z,4.65
2022-08-14T02:26:24.012Z,6.10
2022-08-14T02:29:00.364Z,5.95
2022-08-14T02:31:36.055Z,4.72
2022-08-14T02:34:22.128Z,7.78
2022-08-14T02:37:03.384Z,4.75
2022-08-14T02:39:34.781Z,4.97
2022-08-14T02:42:13.012Z,5.88
2022-08-14T02:44:48.885Z,10.00
2022-08-14T02:47:20.863Z,4.00
2022-08-14T02:49:56.933Z,3.83
2022-08-14T02:52:55.844Z,4.43
2022-08-14T02:55:19.638Z,6.82
2022-08-14T02:58:03.384Z,4.80
2022-08-14T03:00:40.071Z,5.90
2022-08-14T03:03:09.471Z,5.82
2022-08-14T03:05:41.182Z,8.50
2022-08-14T03:08:15.918Z,5.10
2022-08-14T03:10:49.110Z,5.70
2022-08-14T03:13:21.786Z,4.15
2022-08-14T03:15:55.750Z,3.33
2022-08-14T03:18:31.598Z,7.50
2022-08-14T03:21:07.861Z,4.72
2022-08-14T03:23:38.714Z,6.82
2022-08-14T03:26:13.127Z,5.55
2022-08-14T03:28:51.222Z,4.30
2022-08-14T03:31:25.943Z,7.65
2022-08-14T03:33:56.946Z,4.90
2022-08-14T03:37:52.099Z,4.45
2022-08-14T03:39:23.042Z,4.18
2022-08-14T03:41:54.810Z,3.60
2022-08-14T03:45:19.986Z,5.03
2022-08-14T03:47:15.150Z,5.07
2022-08-14T03:49:49.627Z,5.22
2022-08-14T03:52:39.171Z,5.10
2022-08-14T03:55:09.075Z,8.50
2022-08-14T03:57:38.289Z,6.05
2022-08-14T04:00:40.513Z,6.32
2022-08-14T04:03:02.495Z,5.63
2022-08-14T04:05:42.596Z,4.82
2022-08-14T04:08:30.178Z,5.45
2022-08-14T04:11:02.110Z,6.30
2022-08-14T04:13:34.414Z,4.20
2022-08-14T04:16:10.035Z,4.38
2022-08-14T04:18:42.298Z,6.85
2022-08-14T04:21:11.835Z,4.65
2022-08-14T04:23:40.449Z,4.90
2022-08-14T04:26:14.467Z,4.45
2022-08-14T04:29:07.227Z,5.68
2022-08-14T04:32:58.581Z,5.30
2022-08-14T04:34:27.198Z,5.38
2022-08-14T04:37:25.351Z,3.35
2022-08-14T04:40:12.389Z,4.82
2022-08-14T04:42:58.354Z,5.70
2022-08-14T04:45:32.952Z,3.78
2022-08-14T04:48:39.791Z,3.65
2022-08-14T04:51:05.020Z,6.15
2022-08-14T04:53:34.729Z,4.05
2022-08-14T04:56:10.811Z,6.82
2022-08-14T04:59:02.228Z,3.53
2022-08-14T05:01:34.001Z,3.78
2022-08-14T05:04:14.695Z,5.90
2022-08-14T05:06:44.576Z,6.72
2022-08-14T05:09:14.119Z,4.32
2022-08-14T05:11:44.243Z,7.18
2022-08-14T05:14:33.170Z,5.05
2022-08-14T05:17:02.382Z,5.50
2022-08-14T05:19:32.673Z,2.92
2022-08-14T05:22:17.445Z,4.40
2022-08-14T05:24:51.162Z,5.38
2022-08-14T05:27:22.847Z,4.25
2022-08-14T05:29:57.021Z,5.55
2022-08-14T05:32:28.289Z,5.35
2022-08-14T05:35:00.931Z,4.03
2022-08-14T05:37:30.992Z,3.95
2022-08-14T05:40:02.284Z,6.85
2022-08-14T05:42:32.270Z,7.35
2022-08-14T05:45:04.707Z,6.35
2022-08-14T05:47:39.167Z,6.53
2022-08-14T05:50:17.420Z,4.47
2022-08-14T05:52:50.518Z,5.40
2022-08-14T05:55:22.511Z,4.05
2022-08-14T05:57:57.795Z,6.32
2022-08-14T06:00:34.818Z,6.05
2022-08-14T06:03:09.256Z,5.45
2022-08-14T06:05:39.979Z,7.47
2022-08-14T06:08:31.409Z,6.30
2022-08-14T06:11:07.161Z,7.55
2022-08-14T06:13:44.523Z,3.90
2022-08-14T06:16:13.327Z,5.97
2022-08-14T06:18:42.020Z,8.07
2022-08-14T06:21:13.031Z,5.28
2022-08-14T06:23:41.999Z,6.05
2022-08-14T06:26:11.897Z,3.15
2022-08-14T06:28:40.487Z,9.38
2022-08-14T06:31:13.839Z,5.70
2022-08-14T06:35:04.054Z,5.97
2022-08-14T06:36:32.152Z,3.78
2022-08-14T06:39:00.925Z,6.18
2022-08-14T06:41:35.944Z,3.45
2022-08-14T06:44:18.546Z,5.18
2022-08-14T06:46:49.235Z,2.40
2022-08-14T06:49:17.972Z,4.88
2022-08-14T06:51:49.911Z,4.22
2022-08-14T06:54:18.445Z,7.78
2022-08-14T06:56:54.203Z,6.55
2022-08-14T06:59:22.922Z,4.53
2022-08-14T07:02:13.393Z,5.32
2022-08-14T07:05:05.348Z,7.95
2022-08-14T07:07:39.490Z,7.30
2022-08-14T07:10:17.070Z,10.27
2022-08-14T07:13:00.927Z,20.55
2022-08-14T07:15:32.491Z,26.00
2022-08-14T07:18:03.702Z,23.55
2022-08-14T07:20:37.236Z,24.60
2022-08-14T07:23:19.901Z,28.90
2022-08-14T07:25:51.582Z,27.70
2022-08-14T07:28:23.672Z,21.55
2022-08-14T07:30:56.385Z,23.80
2022-08-14T07:33:29.294Z,19.60
2022-08-14T07:36:01.101Z,24.45
2022-08-14T07:38:37.583Z,16.42
2022-08-14T07:41:14.450Z,11.70
2022-08-14T07:43:55.446Z,8.10
2022-08-14T07:46:28.327Z,5.45
2022-08-14T07:48:58.484Z,5.75
2022-08-14T07:51:36.576Z,5.18
2022-08-14T07:54:11.143Z,5.75
2022-08-14T07:56:47.368Z,3.05
2022-08-14T07:59:18.666Z,10.70
2022-08-14T08:01:51.816Z,5.68
2022-08-14T08:04:27.026Z,4.05
2022-08-14T08:06:56.283Z,4.88
2022-08-14T08:09:29.782Z,3.17
2022-08-14T08:12:04.797Z,3.65
2022-08-14T08:14:56.928Z,4.35
2022-08-14T08:17:24.695Z,3.72
2022-08-14T08:19:53.297Z,3.90
2022-08-14T08:22:23.855Z,4.18
2022-08-14T08:24:58.049Z,2.55
2022-08-14T08:27:26.336Z,2.38
2022-08-14T08:30:10.028Z,5.20
2022-08-14T08:32:43.515Z,2.58
2022-08-14T08:35:18.569Z,3.85
2022-08-14T08:37:46.913Z,2.65
2022-08-14T08:40:31.403Z,2.13
2022-08-14T08:43:01.311Z,5.45
2022-08-14T08:45:29.904Z,4.32
2022-08-14T08:47:58.812Z,3.15
2022-08-14T08:53:02.173Z,2.95
2022-08-14T08:55:35.012Z,2.10
2022-08-14T08:58:12.679Z,1.95
2022-08-14T09:00:49.163Z,3.90
2022-08-14T09:03:20.693Z,3.42
2022-08-14T09:05:53.997Z,3.38
2022-08-14T09:08:31.445Z,3.72
2022-08-14T09:11:18.741Z,4.25
2022-08-14T09:13:51.633Z,4.93
2022-08-14T09:16:25.823Z,7.07
2022-08-14T09:18:55.187Z,3.67
2022-08-14T09:21:25.115Z,2.90
2022-08-14T09:24:28.616Z,3.97
2022-08-14T09:26:50.789Z,2.40
2022-08-14T09:29:23.110Z,4.10
2022-08-14T09:31:58.197Z,3.83
2022-08-14T09:34:58.919Z,2.65
2022-08-14T09:37:50.042Z,3.03
2022-08-14T09:40:33.117Z,5.47
2022-08-14T09:43:20.045Z,3.47
2022-08-14T09:45:53.908Z,2.70
2022-08-14T09:48:29.975Z,5.60
2022-08-14T09:54:17.710Z,4.40
2022-08-14T09:56:32.946Z,3.97
2022-08-14T09:59:15.586Z,3.43
2022-08-14T10:01:46.077Z,3.53
2022-08-14T10:04:33.846Z,3.80
2022-08-14T10:07:05.049Z,6.93
2022-08-14T10:09:34.802Z,3.27
2022-08-14T10:12:18.764Z,5.73
2022-08-14T10:14:53.396Z,5.20
2022-08-14T10:17:38.328Z,5.30
2022-08-14T10:20:08.357Z,5.70
2022-08-14T10:23:15.336Z,5.60
2022-08-14T10:25:49.313Z,6.30
2022-08-14T10:29:03.908Z,5.07
2022-08-14T10:31:25.786Z,4.38
2022-08-14T10:34:04.452Z,4.80
2022-08-14T10:36:47.577Z,4.35
2022-08-14T10:39:19.880Z,4.55
2022-08-14T10:41:53.760Z,4.75
2022-08-14T10:44:29.658Z,4.38
2022-08-14T10:47:40.691Z,3.47
2022-08-14T10:50:00.794Z,3.50
2022-08-14T10:52:33.994Z,6.40
2022-08-14T10:55:14.222Z,3.15
2022-08-14T10:57:51.526Z,4.03
2022-08-14T11:00:30.417Z,6.03
2022-08-14T11:03:09.663Z,4.05
2022-08-14T11:05:46.567Z,4.78
2022-08-14T11:08:19.421Z,4.90
2022-08-14T11:10:52.747Z,4.20
2022-08-14T11:13:24.047Z,3.40
2022-08-14T11:15:56.229Z,4.55
2022-08-14T11:18:32.032Z,3.03
2022-08-14T11:21:06.934Z,3.50
2022-08-14T11:23:41.151Z,3.33
2022-08-14T11:26:13.783Z,4.10
2022-08-14T11:28:46.187Z,3.25
2022-08-14T11:31:15.689Z,2.97
2022-08-14T11:33:50.385Z,3.42
2022-08-14T11:36:19.057Z,6.97
2022-08-14T11:38:48.131Z,6.63
2022-08-14T11:41:17.736Z,2.95
2022-08-14T11:43:57.983Z,5.72
2022-08-14T11:46:30.857Z,3.25
2022-08-14T11:49:09.549Z,2.83
2022-08-14T11:51:53.978Z,3.20
2022-08-14T11:54:33.562Z,2.85
2022-08-14T11:57:02.200Z,4.40
2022-08-14T11:59:34.009Z,3.15
2022-08-14T12:02:39.102Z,3.22
2022-08-14T12:05:04.067Z,3.67
2022-08-14T12:07:33.380Z,3.67
2022-08-14T12:10:26.993Z,7.93
2022-08-14T12:12:54.953Z,3.50
2022-08-14T12:15:34.270Z,8.05
2022-08-14T12:18:05.152Z,3.90
2022-08-14T12:20:52.927Z,3.25
2022-08-14T12:23:28.062Z,4.78
2022-08-14T12:26:31.632Z,3.40
2022-08-14T12:29:08.725Z,5.60
2022-08-14T12:31:44.436Z,3.78
2022-08-14T12:34:20.389Z,3.20
2022-08-14T12:37:04.225Z,3.78
2022-08-14T12:39:39.694Z,5.10
2022-08-14T12:42:11.979Z,6.25
2022-08-14T12:44:58.797Z,3.42
2022-08-14T12:47:31.430Z,3.75
2022-08-14T12:50:01.204Z,3.92
2022-08-14T12:52:42.953Z,3.22
2022-08-14T12:55:22.528Z,3.30
2022-08-14T12:58:06.069Z,3.25
2022-08-14T13:01:12.588Z,3.70
2022-08-14T13:03:42.789Z,4.00
2022-08-14T13:06:14.665Z,4.43
2022-08-14T13:08:52.965Z,3.47
2022-08-14T13:11:26.373Z,4.05
2022-08-14T13:14:00.948Z,3.90
2022-08-14T13:16:38.355Z,3.70
2022-08-14T13:19:12.339Z,3.47
2022-08-14T13:21:58.649Z,3.95
2022-08-14T13:24:33.934Z,3.60
2022-08-14T13:27:05.093Z,5.43
2022-08-14T13:29:40.578Z,4.00
2022-08-14T13:32:10.149Z,3.75
2022-08-14T13:34:40.778Z,3.42
2022-08-14T13:37:09.685Z,2.83
2022-08-14T13:39:40.002Z,4.35
2022-08-14T13:42:13.793Z,3.35
2022-08-14T13:44:43.373Z,3.42
2022-08-14T13:47:15.902Z,5.32
2022-08-14T13:49:57.444Z,1.10
2022-08-14T13:52:51.588Z,1.98
2022-08-14T13:55:21.051Z,2.58
2022-08-14T13:58:02.992Z,7.40
2022-08-14T14:00:36.042Z,14.55
2022-08-14T14:03:24.305Z,13.50
2022-08-14T14:05:55.342Z,10.18
2022-08-14T14:08:43.231Z,8.98
2022-08-14T14:11:16.475Z,3.03
2022-08-14T14:13:46.518Z,6.93
2022-08-14T14:16:25.229Z,3.55
2022-08-14T14:19:06.805Z,2.75
2022-08-14T14:21:40.994Z,3.83
2022-08-14T14:24:15.011Z,2.63
2022-08-14T14:26:48.040Z,3.60
2022-08-14T14:29:24.139Z,3.42
2022-08-14T14:31:55.534Z,2.88
2022-08-14T14:34:29.435Z,3.30
2022-08-14T14:37:02.866Z,2.30
2022-08-14T14:39:35.355Z,1.65
2022-08-14T14:42:13.758Z,1.67
2022-08-14T14:44:53.167Z,2.80
2022-08-14T14:47:26.627Z,1.90
2022-08-14T14:49:57.114Z,3.38
2022-08-14T14:52:27.857Z,2.42
2022-08-14T14:54:58.980Z,3.15
2022-08-14T14:57:34.891Z,1.70
2022-08-14T15:00:08.817Z,7.03
2022-08-14T15:02:43.571Z,4.13
2022-08-14T15:05:13.269Z,3.20
2022-08-14T15:07:42.641Z,3.20
2022-08-14T15:10:27.414Z,2.40
2022-08-14T15:13:03.854Z,3.67
2022-08-14T15:15:36.825Z,3.30
2022-08-14T15:18:36.354Z,1.95
2022-08-14T15:20:57.624Z,1.83
2022-08-14T15:23:43.507Z,1.75
2022-08-14T15:26:24.125Z,3.03
2022-08-14T15:29:05.891Z,2.40
2022-08-14T15:31:36.639Z,3.78
2022-08-14T15:34:45.808Z,2.85
2022-08-14T15:37:06.652Z,2.70
2022-08-14T15:39:41.848Z,2.42
2022-08-14T15:42:15.606Z,2.58
2022-08-14T15:44:58.124Z,2.38
2022-08-14T15:47:31.511Z,2.05
2022-08-14T15:50:03.035Z,2.15
2022-08-14T15:52:35.455Z,3.75
2022-08-14T15:55:16.351Z,2.13
2022-08-14T15:58:01.576Z,2.05
2022-08-14T16:00:52.000Z,4.38
2022-08-14T16:03:27.665Z,4.18
2022-08-14T16:06:04.638Z,2.30
2022-08-14T16:08:34.164Z,1.73
2022-08-14T16:11:04.944Z,2.00
2022-08-14T16:13:39.844Z,1.60
2022-08-14T16:16:35.069Z,2.72
2022-08-14T16:19:10.931Z,2.50
2022-08-14T16:21:58.267Z,1.85
2022-08-14T16:24:34.846Z,1.60
2022-08-14T16:27:05.462Z,3.50
2022-08-14T16:29:38.586Z,1.90
2022-08-14T16:32:32.936Z,4.97
2022-08-14T16:34:58.381Z,2.22
2022-08-14T16:37:30.595Z,1.10
2022-08-14T16:40:01.108Z,1.48
2022-08-14T16:42:39.343Z,1.10
2022-08-14T16:45:26.369Z,1.67
2022-08-14T16:47:57.680Z,3.25
2022-08-14T16:50:43.126Z,1.48
2022-08-14T16:53:17.195Z,1.55
2022-08-14T16:55:53.542Z,2.67
2022-08-14T16:58:29.575Z,1.45
2022-08-14T17:01:22.514Z,2.95
2022-08-14T17:03:58.321Z,1.48
2022-08-14T17:06:47.629Z,2.70
2022-08-14T17:09:43.655Z,2.92
2022-08-14T17:12:28.425Z,1.75
2022-08-14T17:15:10.696Z,2.17
2022-08-14T17:17:58.348Z,2.85
2022-08-14T17:20:39.802Z,4.72
2022-08-14T17:23:20.480Z,2.83
2022-08-14T17:25:58.419Z,3.88
2022-08-14T17:28:51.740Z,3.60
2022-08-14T17:31:15.761Z,2.20
2022-08-14T17:36:34.121Z,1.75
2022-08-14T17:39:07.449Z,5.63
2022-08-14T17:41:43.658Z,3.47
2022-08-14T17:44:33.993Z,3.63
2022-08-14T17:47:10.658Z,2.08
2022-08-14T17:49:52.244Z,2.67
2022-08-14T17:52:36.465Z,2.60
2022-08-14T17:55:12.787Z,2.78
2022-08-14T17:58:00.662Z,4.00
2022-08-14T18:00:30.613Z,2.13
2022-08-14T18:03:00.220Z,3.10
2022-08-14T18:06:09.687Z,4.80
2022-08-14T18:08:31.951Z,4.85
2022-08-14T18:11:02.556Z,3.03
2022-08-14T18:13:50.873Z,3.33
2022-08-14T18:16:22.299Z,2.85
2022-08-14T18:18:52.770Z,2.95
2022-08-14T18:21:41.590Z,2.88
2022-08-14T18:24:28.196Z,3.53
2022-08-14T18:27:09.302Z,2.92
2022-08-14T18:29:43.560Z,3.60
2022-08-14T18:32:47.252Z,6.15
2022-08-14T18:35:17.945Z,2.95
2022-08-14T18:37:55.929Z,4.40
2022-08-14T18:40:38.060Z,7.22
2022-08-14T18:43:07.324Z,3.45
2022-08-14T18:45:41.251Z,2.42
2022-08-14T18:48:33.549Z,3.38
2022-08-14T18:51:45.371Z,3.78
2022-08-14T18:54:29.917Z,4.35
2022-08-14T18:57:05.685Z,4.15
2022-08-14T18:59:43.233Z,6.15
2022-08-14T19:02:43.373Z,4.78
2022-08-14T19:05:14.315Z,3.47
2022-08-14T19:07:48.121Z,4.43
2022-08-14T19:10:31.819Z,3.13
2022-08-14T19:13:12.296Z,4.70
2022-08-14T19:15:44.017Z,2.10
2022-08-14T19:18:30.294Z,5.70
2022-08-14T19:21:24.408Z,4.30
2022-08-14T19:24:29.365Z,2.40
2022-08-14T19:27:18.968Z,4.13
2022-08-14T19:29:51.410Z,2.50
2022-08-14T19:32:40.999Z,3.22
2022-08-14T19:35:59.771Z,4.03
2022-08-14T19:38:48.970Z,2.88
2022-08-14T19:41:29.213Z,3.55
2022-08-14T19:44:12.109Z,4.63
2022-08-14T19:47:02.574Z,3.17
2022-08-14T19:50:08.220Z,3.25
2022-08-14T19:52:26.188Z,3.77
2022-08-14T19:54:59.491Z,4.00
2022-08-14T19:57:29.972Z,3.43
2022-08-14T20:00:29.254Z,4.37
2022-08-14T20:03:11.226Z,5.72
2022-08-14T20:05:45.709Z,3.22
2022-08-14T20:10:58.231Z,4.00
2022-08-14T20:11:15.825Z,5.47
2022-08-14T20:14:09.575Z,5.33
2022-08-14T20:16:41.085Z,4.57
2022-08-14T20:19:14.362Z,6.03
2022-08-14T20:21:58.190Z,5.60
2022-08-14T20:24:40.999Z,2.47
2022-08-14T20:27:34.001Z,3.37
2022-08-14T20:30:29.690Z,4.30
2022-08-14T20:33:07.461Z,3.47
2022-08-14T20:35:43.652Z,6.03
2022-08-14T20:38:30.759Z,4.30
2022-08-14T20:41:06.621Z,4.50
2022-08-14T20:43:57.496Z,3.90
2022-08-14T20:46:31.157Z,4.10
2022-08-14T20:49:02.120Z,3.57
2022-08-14T20:51:47.288Z,4.07
2022-08-14T20:54:34.654Z,4.83
2022-08-14T20:57:09.088Z,4.70
2022-08-14T20:59:43.330Z,4.87
2022-08-14T21:02:30.406Z,4.03
2022-08-14T21:05:17.321Z,5.60
2022-08-14T21:07:50.943Z,3.37
2022-08-14T21:10:34.097Z,3.67
2022-08-14T21:14:09.121Z,3.33
2022-08-14T21:15:57.523Z,4.27
2022-08-14T21:18:30.497Z,2.47
2022-08-14T21:21:09.325Z,4.97
2022-08-14T21:23:55.248Z,4.10
2022-08-14T21:26:51.330Z,6.87
2022-08-14T21:29:14.713Z,3.17
2022-08-14T21:31:44.762Z,6.23
2022-08-14T21:34:31.317Z,5.17
2022-08-14T21:37:09.825Z,6.17
2022-08-14T21:39:39.231Z,4.13
2022-08-14T21:42:11.115Z,6.97
2022-08-14T21:44:42.921Z,5.73
2022-08-14T21:47:13.106Z,3.30
2022-08-14T21:49:46.261Z,7.43
2022-08-14T21:52:49.869Z,5.13
2022-08-14T21:55:10.627Z,4.03
2022-08-14T21:57:56.596Z,4.97
2022-08-14T22:00:39.625Z,3.87
2022-08-14T22:03:17.417Z,6.27
2022-08-14T22:05:50.887Z,6.27
2022-08-14T22:08:26.560Z,4.53
2022-08-14T22:10:56.446Z,2.43
2022-08-14T22:13:32.165Z,5.30
2022-08-14T22:16:02.432Z,5.63
2022-08-14T22:18:32.281Z,5.40
2022-08-14T22:21:05.750Z,4.83
2022-08-14T22:23:35.603Z,2.80
2022-08-14T22:26:04.374Z,12.90
2022-08-14T22:28:33.697Z,3.47
2022-08-14T22:31:04.003Z,5.00
2022-08-14T22:33:40.412Z,7.53
2022-08-14T22:36:27.003Z,4.33
2022-08-14T22:39:03.073Z,7.20
2022-08-14T22:41:42.609Z,5.03
2022-08-14T22:44:14.438Z,4.50
2022-08-14T22:46:45.361Z,6.97
2022-08-14T22:50:29.387Z,3.63
2022-08-14T22:52:32.443Z,8.03
2022-08-14T22:54:58.797Z,4.33
2022-08-14T22:57:37.111Z,7.67
2022-08-14T23:00:10.142Z,2.97
2022-08-14T23:02:42.088Z,6.07
2022-08-14T23:05:15.191Z,2.10
2022-08-14T23:08:59.425Z,3.77
2022-08-14T23:10:34.611Z,2.40
2022-08-14T23:13:05.369Z,5.43
2022-08-14T23:15:37.491Z,3.47
2022-08-14T23:18:07.476Z,5.73
2022-08-14T23:20:42.516Z,3.97
2022-08-14T23:23:22.847Z,3.03
2022-08-14T23:26:00.456Z,2.87
2022-08-14T23:28:56.573Z,7.73
2022-08-14T23:31:34.951Z,5.70
2022-08-14T23:34:07.193Z,4.00
2022-08-14T23:36:53.232Z,5.87
2022-08-14T23:39:30.133Z,3.37
2022-08-14T23:42:02.425Z,5.00
2022-08-14T23:44:35.703Z,6.80
2022-08-14T23:47:11.079Z,3.50
2022-08-14T23:50:00.039Z,2.90
2022-08-14T23:52:50.500Z,2.90
2022-08-14T23:55:21.101Z,3.70
2022-08-14T23:57:58.477Z,4.30
